Time;durP1;ratioP1;P1;durP2;ratioP2;P2;SDS_P1;SDS_P2;PMS_P1;PMS_P2;Temp;Humidity;BMP_temperature;BMP_pressure;BME280_temperature;BME280_humidity;BME280_pressure;Samples;Min_cycle;Max_cycle;Signal;HPM_P1;HPM_P2
2022/10/12 00:00:05;;;;;;;28.00;16.23;;;1.60;99.90;;;;;;5091909;28;20484;-73
2022/10/12 00:02:31;;;;;;;22.15;12.82;;;1.60;99.90;;;;;;5091763;28;20035;-70
2022/10/12 00:04:56;;;;;;;23.33;12.93;;;1.60;99.90;;;;;;5093127;28;20036;-70
2022/10/12 00:07:22;;;;;;;33.58;19.17;;;1.60;99.90;;;;;;5093222;28;20066;-73
2022/10/12 00:09:48;;;;;;;29.15;18.17;;;1.50;99.90;;;;;;5092803;28;20029;-73
2022/10/12 00:12:13;;;;;;;34.92;19.40;;;1.50;99.90;;;;;;5093044;28;20048;-74
2022/10/12 00:14:39;;;;;;;41.17;21.05;;;1.50;99.90;;;;;;5093182;28;20040;-71
2022/10/12 00:17:05;;;;;;;41.03;23.13;;;1.40;99.90;;;;;;5093026;28;20020;-73
2022/10/12 00:19:30;;;;;;;43.60;22.40;;;1.40;99.90;;;;;;5093191;28;20020;-73
2022/10/12 00:21:56;;;;;;;41.22;24.45;;;1.40;99.90;;;;;;5091851;28;20016;-73
2022/10/12 00:24:21;;;;;;;33.58;19.83;;;1.40;99.90;;;;;;5092912;28;20028;-72
2022/10/12 00:26:49;;;;;;;41.03;22.52;;;1.30;99.90;;;;;;5092761;28;20055;-73
2022/10/12 00:29:15;;;;;;;38.90;22.88;;;1.30;99.90;;;;;;5096991;28;20034;-73
2022/10/12 00:31:40;;;;;;;33.15;20.58;;;1.20;99.90;;;;;;5117097;28;20100;-71
2022/10/12 00:34:06;;;;;;;37.85;21.23;;;1.20;99.90;;;;;;5100712;28;20034;-71
2022/10/12 00:36:34;;;;;;;29.50;16.48;;;1.20;99.90;;;;;;5096642;28;20025;-72
2022/10/12 00:39:02;;;;;;;20.58;11.55;;;1.20;99.90;;;;;;5096613;28;20030;-73
2022/10/12 00:41:32;;;;;;;19.65;8.77;;;1.20;99.90;;;;;;5076331;28;20032;-71
2022/10/12 00:43:58;;;;;;;21.95;11.07;;;1.20;99.90;;;;;;5076131;28;20024;-74
2022/10/12 00:46:41;;;;;;;15.88;8.77;;;1.20;99.90;;;;;;5094615;28;20043;-73
2022/10/12 00:49:17;;;;;;;14.93;8.93;;;1.20;99.90;;;;;;5096479;28;20038;-71
2022/10/12 00:51:47;;;;;;;26.85;13.85;;;1.30;99.90;;;;;;5096356;28;20024;-73
2022/10/12 00:54:17;;;;;;;18.33;10.88;;;1.20;99.90;;;;;;5094991;28;20020;-71
2022/10/12 00:56:46;;;;;;;18.30;11.10;;;1.20;99.90;;;;;;5096441;28;20073;-71
2022/10/12 00:59:18;;;;;;;17.80;9.60;;;1.20;99.90;;;;;;5096107;28;20514;-71
2022/10/12 01:01:44;;;;;;;14.18;8.80;;;1.20;99.90;;;;;;5096094;28;20030;-71
2022/10/12 01:04:10;;;;;;;12.35;7.88;;;1.20;99.90;;;;;;5095948;28;20104;-74
2022/10/12 01:06:35;;;;;;;10.98;6.95;;;1.20;99.90;;;;;;5114930;28;20032;-73
2022/10/12 01:09:02;;;;;;;6.85;4.45;;;1.20;99.90;;;;;;5116244;28;20065;-72
2022/10/12 01:11:28;;;;;;;4.90;4.28;;;1.20;99.90;;;;;;5116130;28;20053;-73
2022/10/12 01:13:54;;;;;;;8.73;5.68;;;1.20;99.90;;;;;;5114870;28;20028;-73
2022/10/12 01:16:43;;;;;;;16.65;8.63;;;1.20;99.90;;;;;;5115972;28;20024;-73
2022/10/12 01:19:24;;;;;;;15.82;9.15;;;1.20;99.90;;;;;;5114861;28;20031;-71
2022/10/12 01:22:01;;;;;;;20.98;11.07;;;1.20;99.90;;;;;;5116278;28;20028;-71
2022/10/12 01:24:53;;;;;;;19.17;10.52;;;1.10;99.90;;;;;;5114435;28;20032;-71
2022/10/12 01:27:48;;;;;;;20.42;10.65;;;1.10;99.90;;;;;;5114249;28;20110;-71
2022/10/12 01:30:27;;;;;;;27.40;12.05;;;1.00;99.90;;;;;;5102689;28;20392;-70
2022/10/12 01:33:09;;;;;;;23.05;11.50;;;1.00;99.90;;;;;;5109916;28;20055;-74
2022/10/12 01:36:01;;;;;;;17.23;11.43;;;1.00;99.90;;;;;;5095709;28;20040;-71
2022/10/12 01:39:08;;;;;;;25.50;11.35;;;1.00;99.90;;;;;;5093952;28;20043;-74
2022/10/12 01:41:38;;;;;;;21.35;11.10;;;1.00;99.90;;;;;;5054055;28;20036;-71
2022/10/12 01:44:04;;;;;;;20.05;10.07;;;0.90;99.90;;;;;;5072996;28;20029;-74
2022/10/12 01:46:30;;;;;;;15.35;9.05;;;1.00;99.90;;;;;;5084389;28;20047;-71
2022/10/12 01:49:00;;;;;;;16.52;8.52;;;1.00;99.90;;;;;;5115757;28;20159;-73
2022/10/12 01:52:17;;;;;;;17.55;9.00;;;1.00;99.90;;;;;;5114081;28;20020;-73
2022/10/12 01:55:49;;;;;;;11.57;6.53;;;1.00;99.90;;;;;;5072581;28;20062;-71
2022/10/12 01:58:43;;;;;;;9.65;5.20;;;1.00;99.90;;;;;;5059852;28;20052;-71
2022/10/12 02:01:42;;;;;;;11.07;4.95;;;1.00;99.90;;;;;;5072479;28;20056;-73
2022/10/12 02:04:31;;;;;;;4.78;3.60;;;1.00;99.90;;;;;;5115286;28;20024;-71
2022/10/12 02:07:09;;;;;;;8.32;5.38;;;1.00;99.90;;;;;;5115074;28;20152;-72
2022/10/12 02:09:37;;;;;;;11.25;6.18;;;0.90;99.90;;;;;;5115223;28;20085;-73
2022/10/12 02:12:23;;;;;;;9.02;5.63;;;0.90;99.90;;;;;;5115094;28;20016;-74
2022/10/12 02:14:58;;;;;;;7.88;5.03;;;0.90;99.90;;;;;;5114865;28;20079;-71
2022/10/12 02:17:24;;;;;;;6.28;4.55;;;0.90;99.90;;;;;;5115101;28;20358;-71
2022/10/12 02:20:00;;;;;;;9.60;5.90;;;0.80;99.90;;;;;;5114668;28;20027;-73
2022/10/12 02:22:33;;;;;;;14.90;7.60;;;0.80;99.90;;;;;;5113913;28;20024;-71
2022/10/12 02:25:01;;;;;;;11.27;7.68;;;0.90;99.90;;;;;;5113392;28;20114;-72
2022/10/12 02:27:27;;;;;;;11.52;6.78;;;0.80;99.90;;;;;;5112983;27;20421;-71
2022/10/12 02:29:53;;;;;;;8.45;6.18;;;0.80;99.90;;;;;;5094347;28;20032;-73
2022/10/12 02:33:01;;;;;;;11.75;5.70;;;0.80;99.90;;;;;;5096084;28;20031;-74
2022/10/12 02:35:37;;;;;;;11.18;5.00;;;0.80;99.90;;;;;;5108628;28;20058;-71
2022/10/12 02:38:17;;;;;;;8.50;5.53;;;0.80;99.90;;;;;;5114783;28;20047;-71
2022/10/12 02:40:51;;;;;;;10.27;6.15;;;0.80;99.90;;;;;;5113102;28;20084;-71
2022/10/12 02:43:40;;;;;;;10.63;6.75;;;0.70;99.90;;;;;;5114606;28;20077;-71
2022/10/12 02:46:09;;;;;;;9.80;6.88;;;0.70;99.90;;;;;;5113846;28;20055;-71
2022/10/12 02:48:36;;;;;;;13.90;7.28;;;0.70;99.90;;;;;;5114498;28;20015;-73
2022/10/12 02:51:02;;;;;;;12.30;8.60;;;0.60;99.90;;;;;;5112364;28;20519;-73
2022/10/12 02:53:29;;;;;;;15.57;8.82;;;0.60;99.90;;;;;;5114206;28;20430;-73
2022/10/12 02:56:01;;;;;;;20.20;8.95;;;0.60;99.90;;;;;;5097674;28;20029;-74
2022/10/12 02:58:27;;;;;;;14.20;8.82;;;0.50;99.90;;;;;;5092715;28;20058;-71
2022/10/12 03:00:53;;;;;;;13.73;8.93;;;0.50;99.90;;;;;;5092586;28;20438;-71
2022/10/12 03:03:18;;;;;;;15.80;9.70;;;0.50;99.90;;;;;;5093956;28;20040;-71
2022/10/12 03:05:44;;;;;;;12.80;9.05;;;0.50;99.90;;;;;;5093788;28;20490;-71
2022/10/12 03:08:10;;;;;;;13.02;9.30;;;0.50;99.90;;;;;;5093837;28;20031;-71
2022/10/12 03:10:36;;;;;;;12.23;7.60;;;0.60;99.90;;;;;;5093792;28;20020;-73
2022/10/12 03:13:01;;;;;;;12.00;7.07;;;0.50;99.90;;;;;;5093808;28;20061;-73
2022/10/12 03:15:27;;;;;;;11.57;7.30;;;0.50;99.90;;;;;;5093650;28;20149;-71
2022/10/12 03:17:53;;;;;;;10.02;6.30;;;0.60;99.90;;;;;;5093615;28;20032;-71
2022/10/12 03:20:18;;;;;;;10.05;5.20;;;0.60;99.90;;;;;;5093641;28;20051;-71
2022/10/12 03:22:44;;;;;;;9.68;4.95;;;0.60;99.90;;;;;;5093726;28;20020;-74
2022/10/12 03:25:09;;;;;;;9.23;5.20;;;0.60;99.90;;;;;;5092125;28;20028;-73
2022/10/12 03:27:35;;;;;;;6.63;4.60;;;0.60;99.90;;;;;;5093569;28;20490;-71
2022/10/12 03:30:00;;;;;;;5.25;3.50;;;0.60;99.90;;;;;;5093340;28;20035;-74
2022/10/12 03:32:26;;;;;;;10.38;3.92;;;0.60;99.90;;;;;;5109487;28;20028;-71
2022/10/12 03:34:52;;;;;;;8.13;3.80;;;0.60;99.90;;;;;;5093244;28;20077;-74
2022/10/12 03:37:17;;;;;;;5.90;3.85;;;0.60;99.90;;;;;;5092339;28;20141;-71
2022/10/12 03:39:43;;;;;;;6.68;3.70;;;0.60;99.90;;;;;;5093480;28;20064;-71
2022/10/12 03:42:09;;;;;;;8.45;4.75;;;0.60;99.90;;;;;;5093368;28;20558;-72
2022/10/12 03:44:35;;;;;;;7.93;5.00;;;0.60;99.90;;;;;;5093295;28;20024;-71
2022/10/12 03:47:00;;;;;;;8.75;5.32;;;0.60;99.90;;;;;;5093397;28;20039;-74
2022/10/12 03:49:26;;;;;;;6.60;5.00;;;0.60;99.90;;;;;;5091969;28;20273;-74
2022/10/12 03:51:51;;;;;;;5.55;3.80;;;0.60;99.90;;;;;;5093357;28;20107;-73
2022/10/12 03:54:17;;;;;;;6.82;4.28;;;0.60;99.90;;;;;;5093181;28;20028;-73
2022/10/12 03:56:42;;;;;;;6.18;4.40;;;0.60;99.90;;;;;;5093311;28;20069;-71
2022/10/12 03:59:08;;;;;;;7.93;5.32;;;0.60;99.90;;;;;;5093212;28;20474;-73
2022/10/12 04:01:34;;;;;;;11.52;7.68;;;0.60;99.90;;;;;;5093687;28;20051;-74
2022/10/12 04:03:59;;;;;;;8.48;6.00;;;0.60;99.90;;;;;;5095887;28;20461;-72
2022/10/12 04:06:25;;;;;;;6.78;4.63;;;0.60;99.90;;;;;;5095778;28;20028;-70
2022/10/12 04:08:50;;;;;;;8.00;4.80;;;0.50;99.90;;;;;;5097252;28;20095;-74
2022/10/12 04:11:16;;;;;;;12.07;7.50;;;0.50;99.90;;;;;;5095929;28;20122;-70
2022/10/12 04:13:42;;;;;;;9.77;5.80;;;0.50;99.90;;;;;;5095823;28;20079;-71
2022/10/12 04:16:09;;;;;;;12.07;6.40;;;0.50;99.90;;;;;;5096930;28;20526;-70
2022/10/12 04:18:35;;;;;;;10.18;5.53;;;0.40;99.90;;;;;;5097057;28;20020;-73
2022/10/12 04:21:00;;;;;;;13.73;8.02;;;0.40;99.90;;;;;;5096918;28;20487;-70
2022/10/12 04:23:27;;;;;;;11.73;6.07;;;0.40;99.90;;;;;;5097046;28;20018;-74
2022/10/12 04:25:52;;;;;;;7.50;5.30;;;0.40;99.90;;;;;;5096736;28;20366;-73
2022/10/12 04:28:18;;;;;;;12.27;5.20;;;0.40;99.90;;;;;;5095494;28;20073;-71
2022/10/12 04:30:44;;;;;;;7.85;4.22;;;0.40;99.90;;;;;;5096823;28;20024;-71
2022/10/12 04:33:10;;;;;;;10.10;4.93;;;0.40;99.90;;;;;;5100596;28;20092;-71
2022/10/12 04:35:36;;;;;;;9.88;4.57;;;0.40;99.90;;;;;;5096542;28;20123;-70
2022/10/12 04:38:01;;;;;;;11.38;5.03;;;0.40;99.90;;;;;;5095348;28;20031;-71
2022/10/12 04:40:27;;;;;;;4.63;3.30;;;0.40;99.90;;;;;;5096438;28;20024;-73
2022/10/12 04:42:54;;;;;;;5.22;4.18;;;0.40;99.90;;;;;;5095221;28;20032;-72
2022/10/12 04:45:20;;;;;;;10.57;3.40;;;0.40;99.90;;;;;;5096306;28;20039;-70
2022/10/12 04:47:45;;;;;;;9.32;5.65;;;0.40;99.90;;;;;;5096459;28;20099;-73
2022/10/12 04:50:11;;;;;;;10.38;4.25;;;0.40;99.90;;;;;;5096284;28;20024;-74
2022/10/12 04:52:36;;;;;;;8.60;4.60;;;0.40;99.90;;;;;;5096378;28;20031;-72
2022/10/12 04:55:02;;;;;;;9.30;4.95;;;0.40;99.90;;;;;;5096210;28;20027;-73
2022/10/12 04:57:28;;;;;;;6.75;4.47;;;0.50;99.90;;;;;;5094953;28;20031;-70
2022/10/12 04:59:53;;;;;;;13.35;4.30;;;0.40;99.90;;;;;;5096023;28;20499;-70
2022/10/12 05:02:19;;;;;;;8.23;4.32;;;0.40;99.90;;;;;;5096097;28;20017;-73
2022/10/12 05:04:45;;;;;;;7.45;3.95;;;0.40;99.90;;;;;;5095221;28;20093;-70
2022/10/12 05:07:10;;;;;;;8.48;3.67;;;0.40;99.90;;;;;;5095902;28;20024;-74
2022/10/12 05:09:36;;;;;;;5.35;4.30;;;0.50;99.90;;;;;;5095878;28;20039;-70
2022/10/12 05:12:02;;;;;;;8.85;4.65;;;0.50;99.90;;;;;;5095919;28;20509;-75
2022/10/12 05:14:27;;;;;;;8.93;5.45;;;0.40;99.90;;;;;;5095308;28;20039;-70
2022/10/12 05:16:53;;;;;;;5.18;3.63;;;0.50;99.90;;;;;;5095429;28;20039;-72
2022/10/12 05:19:18;;;;;;;8.57;3.92;;;0.50;99.90;;;;;;5094306;28;20107;-74
2022/10/12 05:21:44;;;;;;;9.43;5.75;;;0.50;99.90;;;;;;5095587;28;20501;-71
2022/10/12 05:24:09;;;;;;;9.23;6.45;;;0.50;99.90;;;;;;5095622;28;20032;-71
2022/10/12 05:26:35;;;;;;;11.60;5.43;;;0.50;99.90;;;;;;5099824;28;20385;-70
2022/10/12 05:29:01;;;;;;;10.40;6.13;;;0.60;99.90;;;;;;5095234;28;20024;-73
2022/10/12 05:31:26;;;;;;;12.65;6.65;;;0.60;99.90;;;;;;5095333;28;20028;-73
2022/10/12 05:33:52;;;;;;;14.55;7.28;;;0.60;99.90;;;;;;5110987;28;20035;-71
2022/10/12 05:36:17;;;;;;;9.13;5.65;;;0.60;99.90;;;;;;5115325;28;20059;-70
2022/10/12 05:38:43;;;;;;;8.25;6.55;;;0.70;99.90;;;;;;5116014;28;20027;-71
2022/10/12 05:41:08;;;;;;;12.20;6.18;;;0.70;99.90;;;;;;5113930;28;20039;-74
2022/10/12 05:43:34;;;;;;;16.20;6.03;;;0.70;99.90;;;;;;5115738;28;20491;-72
2022/10/12 05:46:00;;;;;;;13.05;6.60;;;0.80;99.90;;;;;;5107919;28;20040;-71
2022/10/12 05:48:25;;;;;;;11.88;6.25;;;0.80;99.90;;;;;;5092311;28;20027;-71
2022/10/12 05:50:53;;;;;;;10.45;6.28;;;0.90;99.90;;;;;;5091786;28;20025;-71
2022/10/12 05:53:19;;;;;;;15.10;6.70;;;1.00;99.90;;;;;;5085193;28;20017;-71
2022/10/12 05:55:59;;;;;;;13.73;6.88;;;1.10;99.90;;;;;;5088450;27;20109;-71
2022/10/12 05:58:26;;;;;;;14.23;7.78;;;1.20;99.90;;;;;;5110646;28;20530;-71
2022/10/12 06:00:52;;;;;;;16.73;7.43;;;1.20;99.90;;;;;;5111506;28;20493;-71
2022/10/12 06:03:18;;;;;;;12.38;7.55;;;1.30;99.90;;;;;;5105906;28;20027;-71
2022/10/12 06:05:44;;;;;;;14.70;7.28;;;1.30;99.90;;;;;;5111235;28;20043;-71
2022/10/12 06:08:10;;;;;;;26.20;17.20;;;1.40;99.90;;;;;;5112299;28;20023;-71
2022/10/12 06:10:36;;;;;;;17.10;10.15;;;1.50;99.90;;;;;;5094155;28;20406;-71
2022/10/12 06:13:02;;;;;;;18.77;10.15;;;1.50;99.90;;;;;;5111847;28;20026;-72
2022/10/12 06:15:28;;;;;;;17.90;9.85;;;1.60;99.90;;;;;;5109504;28;20585;-71
2022/10/12 06:17:54;;;;;;;9.57;6.45;;;1.60;99.90;;;;;;5113929;28;20201;-71
2022/10/12 06:20:19;;;;;;;13.43;6.63;;;1.70;99.90;;;;;;5112966;28;20148;-71
2022/10/12 06:22:45;;;;;;;12.20;6.30;;;1.80;99.90;;;;;;5094060;28;20055;-72
2022/10/12 06:25:11;;;;;;;12.68;6.55;;;1.80;99.90;;;;;;5093107;28;20032;-74
2022/10/12 06:27:36;;;;;;;10.90;6.53;;;1.90;99.90;;;;;;5093874;28;20034;-71
2022/10/12 06:30:02;;;;;;;16.17;7.55;;;2.00;99.90;;;;;;5094004;28;20489;-72
2022/10/12 06:32:28;;;;;;;13.60;8.07;;;2.10;99.90;;;;;;5088664;28;20027;-74
2022/10/12 06:34:54;;;;;;;12.73;7.40;;;2.20;99.90;;;;;;5112173;28;20115;-72
2022/10/12 06:37:19;;;;;;;11.98;7.15;;;2.30;99.90;;;;;;5112453;28;20047;-72
2022/10/12 06:39:45;;;;;;;15.18;8.05;;;2.50;99.90;;;;;;5112679;28;20415;-72
2022/10/12 06:42:10;;;;;;;15.00;8.43;;;2.60;99.90;;;;;;5109976;28;20111;-71
2022/10/12 06:44:36;;;;;;;14.25;8.02;;;2.90;99.90;;;;;;5109352;28;20028;-71
2022/10/12 06:47:02;;;;;;;14.05;9.05;;;3.20;99.90;;;;;;5109459;28;20023;-71
2022/10/12 06:49:27;;;;;;;15.00;8.85;;;3.50;99.90;;;;;;5108999;28;20031;-71
2022/10/12 06:51:53;;;;;;;17.25;9.45;;;3.70;99.90;;;;;;5108124;28;20528;-72
2022/10/12 06:54:18;;;;;;;20.13;10.77;;;3.90;99.90;;;;;;5105944;28;20024;-72
2022/10/12 06:56:44;;;;;;;22.73;11.57;;;4.20;99.90;;;;;;5107811;27;20106;-71
2022/10/12 06:59:13;;;;;;;22.35;12.93;;;4.40;99.90;;;;;;5109170;28;20054;-72
2022/10/12 07:01:38;;;;;;;29.65;14.48;;;4.60;99.90;;;;;;5109078;28;20019;-74
2022/10/12 07:04:04;;;;;;;20.55;11.27;;;4.70;99.90;;;;;;5112343;28;20426;-72
2022/10/12 07:06:31;;;;;;;24.52;11.82;;;4.90;99.90;;;;;;5111883;28;20027;-71
2022/10/12 07:08:57;;;;;;;20.23;10.25;;;5.10;99.90;;;;;;5114323;28;20031;-75
2022/10/12 07:11:22;;;;;;;21.35;9.88;;;5.20;99.90;;;;;;5113989;28;20034;-74
2022/10/12 07:13:48;;;;;;;12.60;8.30;;;5.50;99.90;;;;;;5114271;28;20042;-71
2022/10/12 07:16:14;;;;;;;18.92;8.45;;;5.70;99.90;;;;;;5113867;28;20027;-74
2022/10/12 07:18:40;;;;;;;17.83;8.90;;;5.80;99.90;;;;;;5114123;28;20118;-71
2022/10/12 07:21:05;;;;;;;16.73;9.10;;;6.00;99.90;;;;;;5112612;28;20106;-74
2022/10/12 07:23:32;;;;;;;18.45;9.50;;;6.20;99.90;;;;;;5114033;28;20098;-72
2022/10/12 07:25:58;;;;;;;19.63;8.93;;;6.40;99.90;;;;;;5098554;28;20511;-74
2022/10/12 07:28:24;;;;;;;11.48;7.60;;;6.50;99.90;;;;;;5092095;28;20024;-71
2022/10/12 07:30:50;;;;;;;16.48;7.47;;;6.60;99.90;;;;;;5093898;28;20074;-74
2022/10/12 07:33:16;;;;;;;10.32;6.18;;;6.80;99.90;;;;;;5101168;28;20473;-74
2022/10/12 07:35:41;;;;;;;14.70;6.95;;;7.00;99.90;;;;;;5093461;28;20055;-74
2022/10/12 07:38:07;;;;;;;11.18;6.40;;;7.20;99.90;;;;;;5091944;28;20059;-74
2022/10/12 07:40:57;;;;;;;10.73;6.55;;;7.30;99.90;;;;;;5092839;28;20054;-74
2022/10/12 07:43:22;;;;;;;9.68;5.30;;;7.50;99.90;;;;;;5093182;28;20016;-74
2022/10/12 07:45:48;;;;;;;10.38;6.32;;;7.70;99.90;;;;;;5093163;28;20495;-71
2022/10/12 07:48:14;;;;;;;13.30;5.82;;;7.80;99.90;;;;;;5093433;28;20485;-74
2022/10/12 07:50:39;;;;;;;10.05;5.13;;;8.00;99.90;;;;;;5093380;28;20474;-72
2022/10/12 07:53:05;;;;;;;11.45;5.47;;;8.10;99.90;;;;;;5093344;28;20060;-75
2022/10/12 07:55:30;;;;;;;10.07;4.75;;;8.30;99.90;;;;;;5093215;28;20032;-71
2022/10/12 07:58:00;;;;;;;9.57;5.10;;;8.50;99.90;;;;;;5091907;28;20035;-74
2022/10/12 08:00:27;;;;;;;11.43;5.30;;;8.70;99.90;;;;;;5093221;28;20024;-71
2022/10/12 08:02:52;;;;;;;8.25;4.30;;;8.90;99.90;;;;;;5093367;28;20028;-75
2022/10/12 08:05:20;;;;;;;7.55;4.03;;;9.10;99.90;;;;;;5092943;28;20389;-71
2022/10/12 08:07:47;;;;;;;8.77;4.45;;;9.30;99.90;;;;;;5093222;28;20481;-74
2022/10/12 08:10:12;;;;;;;8.77;4.30;;;9.40;99.90;;;;;;5093075;28;20147;-74
2022/10/12 08:12:38;;;;;;;9.40;4.30;;;9.60;99.90;;;;;;5092061;28;20055;-74
2022/10/12 08:15:04;;;;;;;8.95;4.38;;;9.80;99.90;;;;;;5092969;28;20481;-71
2022/10/12 08:17:30;;;;;;;11.57;3.45;;;9.90;99.90;;;;;;5093125;28;20024;-71
2022/10/12 08:19:56;;;;;;;8.02;4.30;;;10.10;99.90;;;;;;5091648;28;20081;-74
2022/10/12 08:22:21;;;;;;;11.45;4.07;;;10.20;99.90;;;;;;5093194;28;20024;-71
2022/10/12 08:24:47;;;;;;;8.93;3.70;;;10.30;99.90;;;;;;5092743;28;20048;-75
2022/10/12 08:27:12;;;;;;;7.20;3.67;;;10.50;99.90;;;;;;5093241;28;20137;-74
2022/10/12 08:29:38;;;;;;;7.97;3.25;;;10.60;99.90;;;;;;5092981;28;20131;-74
2022/10/12 08:32:04;;;;;;;8.70;3.67;;;10.70;99.90;;;;;;5098918;28;20059;-74
2022/10/12 08:34:30;;;;;;;10.40;3.90;;;10.70;94.50;;;;;;5092572;28;20543;-71
2022/10/12 08:36:58;;;;;;;10.13;3.67;;;10.90;96.50;;;;;;5093157;28;20020;-71
2022/10/12 08:39:24;;;;;;;7.28;3.58;;;11.00;95.80;;;;;;5091545;28;20021;-71
2022/10/12 08:42:14;;;;;;;7.57;3.78;;;11.10;93.70;;;;;;5091676;28;20040;-74
2022/10/12 08:44:58;;;;;;;9.60;3.22;;;11.20;92.10;;;;;;5093006;28;20016;-70
2022/10/12 08:47:40;;;;;;;5.60;2.88;;;11.30;87.40;;;;;;5091790;28;20036;-70
2022/10/12 08:50:16;;;;;;;9.50;3.25;;;11.30;87.50;;;;;;5095423;28;20873;-74
2022/10/12 08:52:55;;;;;;;5.85;3.08;;;11.40;82.00;;;;;;5094914;28;20020;-74
2022/10/12 08:55:43;;;;;;;5.72;2.83;;;11.50;82.30;;;;;;5096195;28;20133;-74
2022/10/12 08:58:19;;;;;;;8.70;3.25;;;11.60;79.30;;;;;;5096489;28;20039;-70
2022/10/12 09:00:55;;;;;;;9.88;3.15;;;11.80;81.30;;;;;;5096333;28;20441;-71
2022/10/12 09:03:39;;;;;;;6.97;4.05;;;11.90;79.90;;;;;;5096702;28;20097;-74
2022/10/12 09:06:18;;;;;;;9.27;5.43;;;11.90;78.00;;;;;;5096123;28;20043;-74
2022/10/12 09:08:56;;;;;;;11.15;3.72;;;12.00;73.90;;;;;;5096297;28;20020;-71
2022/10/12 09:11:44;;;;;;;8.85;4.20;;;12.00;72.60;;;;;;5094881;28;20030;-74
2022/10/12 09:14:16;;;;;;;6.43;3.63;;;12.00;70.10;;;;;;5096007;28;20029;-74
2022/10/12 09:16:45;;;;;;;8.75;2.95;;;12.10;71.70;;;;;;5094830;28;20024;-74
2022/10/12 09:19:20;;;;;;;8.57;3.40;;;12.20;70.30;;;;;;5094611;28;20108;-71
2022/10/12 09:21:47;;;;;;;6.30;2.28;;;12.20;70.10;;;;;;5094557;28;20027;-71
2022/10/12 09:24:20;;;;;;;7.15;2.95;;;12.20;69.40;;;;;;5095842;28;20051;-71
2022/10/12 09:26:50;;;;;;;8.07;2.70;;;12.20;70.40;;;;;;5095649;28;20077;-74
2022/10/12 09:29:28;;;;;;;5.40;2.38;;;12.30;71.80;;;;;;5095760;28;20477;-74
2022/10/12 09:32:21;;;;;;;8.82;2.72;;;12.40;69.70;;;;;;5097845;28;20051;-71
2022/10/12 09:34:48;;;;;;;4.78;2.60;;;12.50;67.20;;;;;;5095454;28;20447;-70
2022/10/12 09:37:19;;;;;;;7.70;2.65;;;12.60;69.10;;;;;;5095420;28;20100;-71
2022/10/12 09:39:45;;;;;;;6.32;2.97;;;12.60;68.80;;;;;;5095287;28;20020;-70
2022/10/12 09:42:11;;;;;;;10.00;2.85;;;12.70;66.60;;;;;;5095477;28;20024;-71
2022/10/12 09:44:42;;;;;;;6.47;2.03;;;12.70;67.20;;;;;;5095342;28;20024;-70
2022/10/12 09:47:22;;;;;;;7.35;2.60;;;12.70;66.60;;;;;;5095294;28;20489;-71
2022/10/12 09:49:53;;;;;;;8.23;2.80;;;12.60;67.20;;;;;;5095164;28;20012;-71
2022/10/12 09:52:23;;;;;;;5.38;2.25;;;12.50;69.50;;;;;;5095397;28;20069;-74
2022/10/12 09:54:56;;;;;;;6.53;2.58;;;12.30;70.10;;;;;;5093782;28;20016;-73
2022/10/12 09:57:32;;;;;;;13.50;3.50;;;12.20;71.60;;;;;;5093840;28;20123;-74
2022/10/12 10:00:00;;;;;;;7.95;2.95;;;12.20;72.30;;;;;;5094782;28;20031;-70
2022/10/12 10:02:25;;;;;;;7.35;2.65;;;12.30;71.90;;;;;;5095217;28;20023;-71
2022/10/12 10:04:53;;;;;;;9.48;2.88;;;12.40;70.20;;;;;;5094947;28;20104;-70
2022/10/12 10:07:32;;;;;;;5.03;2.28;;;12.50;69.70;;;;;;5094844;28;20021;-71
2022/10/12 10:10:18;;;;;;;5.03;3.22;;;12.70;68.90;;;;;;5094925;28;20020;-70
2022/10/12 10:13:01;;;;;;;5.78;2.30;;;12.80;69.60;;;;;;5095073;28;20028;-74
2022/10/12 10:15:29;;;;;;;4.18;2.00;;;12.90;67.30;;;;;;5094708;28;20085;-70
2022/10/12 10:18:00;;;;;;;8.85;3.42;;;12.90;66.80;;;;;;5094613;28;20535;-70
2022/10/12 10:20:46;;;;;;;5.35;3.25;;;13.00;68.10;;;;;;5094558;28;20061;-74
2022/10/12 10:23:50;;;;;;;6.78;3.40;;;13.10;70.20;;;;;;5094875;28;20024;-70
2022/10/12 10:26:19;;;;;;;8.10;3.03;;;13.30;69.80;;;;;;5092309;28;20098;-70
2022/10/12 10:28:47;;;;;;;3.10;2.50;;;13.40;70.00;;;;;;5109778;28;20126;-70
2022/10/12 10:31:12;;;;;;;5.88;2.33;;;13.40;67.60;;;;;;5114634;28;20088;-74
2022/10/12 10:33:39;;;;;;;5.90;2.90;;;13.40;67.30;;;;;;5099450;28;20027;-74
2022/10/12 10:36:16;;;;;;;7.63;2.60;;;13.50;68.50;;;;;;5094367;28;20048;-70
2022/10/12 10:39:06;;;;;;;6.85;2.67;;;13.50;67.90;;;;;;5094498;28;20432;-70
2022/10/12 10:41:35;;;;;;;6.22;2.75;;;13.30;68.50;;;;;;5088776;28;20036;-75
2022/10/12 10:44:02;;;;;;;7.95;3.15;;;13.20;68.60;;;;;;5092858;28;20024;-70
2022/10/12 10:46:31;;;;;;;11.43;3.17;;;13.00;70.30;;;;;;5094095;28;20118;-75
2022/10/12 10:49:05;;;;;;;8.70;4.15;;;12.90;71.20;;;;;;5094208;28;20039;-74
2022/10/12 10:51:53;;;;;;;5.00;3.00;;;12.70;70.10;;;;;;5092955;28;20024;-70
2022/10/12 10:54:22;;;;;;;10.90;2.92;;;12.60;72.20;;;;;;5094242;28;20024;-74
2022/10/12 10:56:50;;;;;;;4.78;2.47;;;12.60;72.50;;;;;;5093925;28;20485;-74
2022/10/12 10:59:23;;;;;;;7.10;2.50;;;12.50;71.00;;;;;;5094243;28;20027;-74
2022/10/12 11:01:54;;;;;;;7.03;2.83;;;12.40;70.40;;;;;;5093946;28;20091;-70
2022/10/12 11:04:38;;;;;;;4.72;2.67;;;12.40;70.40;;;;;;5092633;28;20469;-74
2022/10/12 11:07:18;;;;;;;7.85;3.85;;;12.40;71.80;;;;;;5093874;28;20068;-70
2022/10/12 11:09:47;;;;;;;4.18;2.47;;;12.40;71.40;;;;;;5073764;28;20112;-74
2022/10/12 11:12:20;;;;;;;4.55;2.50;;;12.30;70.70;;;;;;5073003;28;20370;-74
2022/10/12 11:14:50;;;;;;;7.30;2.42;;;12.30;69.40;;;;;;5073328;28;20021;-74
2022/10/12 11:17:32;;;;;;;4.50;3.05;;;12.30;68.60;;;;;;5073526;28;20020;-74
2022/10/12 11:20:20;;;;;;;8.60;2.58;;;12.30;68.90;;;;;;5114219;28;20023;-70
2022/10/12 11:23:14;;;;;;;5.63;2.70;;;12.50;69.30;;;;;;5113620;28;20023;-74
2022/10/12 11:25:59;;;;;;;7.90;2.75;;;12.70;68.30;;;;;;5111600;28;20082;-71
2022/10/12 11:28:29;;;;;;;3.15;2.28;;;12.70;67.50;;;;;;5100816;28;20024;-74
2022/10/12 11:30:56;;;;;;;9.90;2.75;;;12.90;67.60;;;;;;5091952;28;20140;-70
2022/10/12 11:33:43;;;;;;;3.45;2.95;;;12.90;66.00;;;;;;5106436;28;20380;-70
2022/10/12 11:36:13;;;;;;;4.03;2.20;;;13.10;66.60;;;;;;5113752;28;20048;-70
2022/10/12 11:39:07;;;;;;;3.80;2.55;;;13.30;67.40;;;;;;5114091;28;20028;-74
2022/10/12 11:41:45;;;;;;;6.15;2.55;;;13.30;65.60;;;;;;5108057;28;20408;-70
2022/10/12 11:44:26;;;;;;;4.55;2.30;;;13.30;63.50;;;;;;5113691;28;20465;-74
2022/10/12 11:47:00;;;;;;;3.92;2.55;;;13.50;64.70;;;;;;5113830;28;20035;-70
2022/10/12 11:49:34;;;;;;;5.65;2.95;;;13.50;64.70;;;;;;5113607;28;20426;-70
2022/10/12 11:52:08;;;;;;;9.05;3.88;;;13.60;64.70;;;;;;5113829;28;20061;-74
2022/10/12 11:54:53;;;;;;;6.80;2.38;;;13.60;63.00;;;;;;5113665;28;20441;-75
2022/10/12 11:57:27;;;;;;;6.32;2.28;;;13.50;61.10;;;;;;5113608;28;20030;-70
2022/10/12 12:00:00;;;;;;;7.82;2.75;;;13.50;61.40;;;;;;5113469;28;20388;-70
2022/10/12 12:02:39;;;;;;;6.57;2.10;;;13.50;61.20;;;;;;5113796;28;20027;-70
2022/10/12 12:05:14;;;;;;;8.18;2.50;;;13.40;62.30;;;;;;5112412;28;20373;-70
2022/10/12 12:07:46;;;;;;;3.88;2.50;;;13.50;62.50;;;;;;5113416;28;20028;-75
2022/10/12 12:10:24;;;;;;;;;;;13.60;61.20;;;;;;5112808;28;20024;-74
2022/10/12 12:13:16;;;;;;;3.53;2.40;;;13.70;60.80;;;;;;5113447;28;20264;-71
2022/10/12 12:15:51;;;;;;;5.68;2.50;;;13.70;58.70;;;;;;5112482;28;20430;-74
2022/10/12 12:18:19;;;;;;;6.88;2.30;;;13.80;60.90;;;;;;5111974;28;20039;-70
2022/10/12 12:20:48;;;;;;;6.63;3.13;;;13.90;61.40;;;;;;5113524;28;20027;-75
2022/10/12 12:23:28;;;;;;;5.55;2.70;;;13.90;59.80;;;;;;5113330;28;20384;-70
2022/10/12 12:26:08;;;;;;;5.38;2.38;;;13.90;60.50;;;;;;5117475;28;20042;-70
2022/10/12 12:28:37;;;;;;;6.63;2.58;;;13.80;60.10;;;;;;5102646;28;20028;-74
2022/10/12 12:31:22;;;;;;;7.63;3.53;;;13.80;61.20;;;;;;5096699;28;20453;-74
2022/10/12 12:33:59;;;;;;;7.32;3.53;;;13.60;61.40;;;;;;5112712;28;20031;-70
2022/10/12 12:36:34;;;;;;;7.60;3.03;;;13.50;62.00;;;;;;5117103;27;20032;-74
2022/10/12 12:39:00;;;;;;;6.90;3.13;;;13.30;63.80;;;;;;5116865;28;20099;-70
2022/10/12 12:41:44;;;;;;;8.15;3.10;;;13.30;64.30;;;;;;5117104;28;20028;-74
2022/10/12 12:44:33;;;;;;;6.20;2.90;;;13.10;64.70;;;;;;5115298;28;20030;-75
2022/10/12 12:47:01;;;;;;;6.60;3.60;;;12.90;66.80;;;;;;5115745;28;20134;-70
2022/10/12 12:49:59;;;;;;;6.65;4.20;;;12.80;68.10;;;;;;5116682;28;20026;-70
2022/10/12 12:52:32;;;;;;;8.07;4.32;;;12.60;69.50;;;;;;5116875;27;20076;-70
2022/10/12 12:55:39;;;;;;;7.00;3.70;;;12.50;70.20;;;;;;5116502;28;20380;-75
2022/10/12 12:58:22;;;;;;;8.07;3.72;;;12.40;70.80;;;;;;5095562;28;20047;-74
2022/10/12 13:01:02;;;;;;;10.75;4.30;;;12.30;71.20;;;;;;5116665;28;20028;-71
2022/10/12 13:03:52;;;;;;;6.80;4.43;;;12.20;72.00;;;;;;5115021;27;20106;-74
2022/10/12 13:06:27;;;;;;;8.18;4.18;;;12.20;72.20;;;;;;5116571;28;20067;-75
2022/10/12 13:09:01;;;;;;;6.05;3.60;;;12.20;73.00;;;;;;5116236;28;20065;-74